createdAt,value
2019-03-24T00:01:41.104Z,4.30
2019-03-24T00:04:06.640Z,3.87
2019-03-24T00:06:35.230Z,5.30
2019-03-24T00:09:05.785Z,4.15
2019-03-24T00:11:33.716Z,4.22
2019-03-24T00:14:01.683Z,5.22
2019-03-24T00:16:29.462Z,4.60
2019-03-24T00:18:57.079Z,5.25
2019-03-24T00:21:24.764Z,5.10
2019-03-24T00:23:52.283Z,5.37
2019-03-24T00:26:19.824Z,4.33
2019-03-24T00:28:47.775Z,4.90
2019-03-24T00:31:16.431Z,5.05
2019-03-24T00:33:44.478Z,5.22
2019-03-24T00:36:12.251Z,3.70
2019-03-24T00:38:40.269Z,5.55
2019-03-24T00:41:07.851Z,4.78
2019-03-24T00:43:35.426Z,4.67
2019-03-24T00:46:03.228Z,4.97
2019-03-24T00:48:30.904Z,4.58
2019-03-24T00:50:58.909Z,4.83
2019-03-24T00:53:26.681Z,5.45
2019-03-24T00:55:54.276Z,4.55
2019-03-24T00:58:22.295Z,5.22
2019-03-24T01:00:50.583Z,5.15
2019-03-24T01:03:18.913Z,4.78
2019-03-24T01:05:46.746Z,5.47
2019-03-24T01:08:15.008Z,5.05
2019-03-24T01:10:42.660Z,4.60
2019-03-24T01:13:12.547Z,4.35
2019-03-24T01:15:47.674Z,4.12
2019-03-24T01:18:10.003Z,4.47
2019-03-24T01:20:37.699Z,4.22
2019-03-24T01:23:05.439Z,4.42
2019-03-24T01:25:33.527Z,5.72
2019-03-24T01:28:01.354Z,4.37
2019-03-24T01:30:29.161Z,3.98
2019-03-24T01:32:56.829Z,5.10
2019-03-24T01:35:24.826Z,4.42
2019-03-24T01:37:52.750Z,4.28
2019-03-24T01:40:20.458Z,5.00
2019-03-24T01:42:48.426Z,4.58
2019-03-24T01:45:16.214Z,4.78
2019-03-24T01:47:43.985Z,4.75
2019-03-24T01:50:12.015Z,4.60
2019-03-24T01:52:39.591Z,5.28
2019-03-24T01:55:08.215Z,4.58
2019-03-24T01:57:35.803Z,4.53
2019-03-24T02:00:04.064Z,5.22
2019-03-24T02:02:31.636Z,4.55
2019-03-24T02:04:59.746Z,4.42
2019-03-24T02:07:27.590Z,4.28
2019-03-24T02:09:55.140Z,4.40
2019-03-24T02:12:22.993Z,5.03
2019-03-24T02:14:50.605Z,4.62
2019-03-24T02:17:18.732Z,4.78
2019-03-24T02:19:46.300Z,4.30
2019-03-24T02:22:13.833Z,4.33
2019-03-24T02:24:42.034Z,4.60
2019-03-24T02:27:09.690Z,4.37
2019-03-24T02:29:37.466Z,3.58
2019-03-24T02:32:05.114Z,6.35
2019-03-24T02:34:33.076Z,4.85
2019-03-24T02:37:00.699Z,3.47
2019-03-24T02:39:29.565Z,4.30
2019-03-24T02:41:57.164Z,3.87
2019-03-24T02:44:24.767Z,4.47
2019-03-24T02:46:52.474Z,4.05
2019-03-24T02:49:21.033Z,4.90
2019-03-24T02:51:48.573Z,3.83
2019-03-24T02:54:16.563Z,3.85
2019-03-24T02:56:44.441Z,4.08
2019-03-24T02:59:12.159Z,3.90
2019-03-24T03:01:39.813Z,4.75
2019-03-24T03:04:07.777Z,4.30
2019-03-24T03:06:35.702Z,5.15
2019-03-24T03:09:04.920Z,4.60
2019-03-24T03:11:32.747Z,5.03
2019-03-24T03:14:00.386Z,4.53
2019-03-24T03:16:38.207Z,4.83
2019-03-24T03:18:58.030Z,4.85
2019-03-24T03:21:25.597Z,5.03
2019-03-24T03:23:54.135Z,4.50
2019-03-24T03:26:21.698Z,3.90
2019-03-24T03:28:49.244Z,5.65
2019-03-24T03:31:17.102Z,4.70
2019-03-24T03:33:44.785Z,4.10
2019-03-24T03:36:12.773Z,4.25
2019-03-24T03:38:40.393Z,5.50
2019-03-24T03:41:08.156Z,5.22
2019-03-24T03:43:35.764Z,5.75
2019-03-24T03:46:03.589Z,4.35
2019-03-24T03:48:31.395Z,4.53
2019-03-24T03:50:59.255Z,4.83
2019-03-24T03:53:27.061Z,4.97
2019-03-24T03:55:54.682Z,6.33
2019-03-24T03:58:22.193Z,4.60
2019-03-24T04:00:49.837Z,4.50
2019-03-24T04:03:17.569Z,5.30
2019-03-24T04:05:45.121Z,4.22
2019-03-24T04:08:12.798Z,4.33
2019-03-24T04:10:40.468Z,4.28
2019-03-24T04:13:08.376Z,6.00
2019-03-24T04:15:35.934Z,5.47
2019-03-24T04:18:03.842Z,5.50
2019-03-24T04:20:31.575Z,5.22
2019-03-24T04:22:59.800Z,5.17
2019-03-24T04:25:27.424Z,5.20
2019-03-24T04:27:55.376Z,5.05
2019-03-24T04:30:22.988Z,5.30
2019-03-24T04:32:51.155Z,4.92
2019-03-24T04:35:19.030Z,4.45
2019-03-24T04:37:46.688Z,5.83
2019-03-24T04:40:14.399Z,4.87
2019-03-24T04:42:42.319Z,4.87
2019-03-24T04:45:11.019Z,4.78
2019-03-24T04:47:39.154Z,5.00
2019-03-24T04:50:08.337Z,4.35
2019-03-24T04:52:36.219Z,4.35
2019-03-24T04:55:04.787Z,4.65
2019-03-24T04:57:32.872Z,4.87
2019-03-24T05:00:00.887Z,5.00
2019-03-24T05:02:28.708Z,5.10
2019-03-24T05:04:56.523Z,5.10
2019-03-24T05:07:24.890Z,4.90
2019-03-24T05:09:54.484Z,4.12
2019-03-24T05:12:22.428Z,7.08
2019-03-24T05:14:49.968Z,5.47
2019-03-24T05:17:26.743Z,5.00
2019-03-24T05:19:47.124Z,4.45
2019-03-24T05:22:15.631Z,4.53
2019-03-24T05:24:43.156Z,4.90
2019-03-24T05:27:11.211Z,4.92
2019-03-24T05:29:38.814Z,6.50
2019-03-24T05:32:06.659Z,5.47
2019-03-24T05:34:34.557Z,5.20
2019-03-24T05:37:02.308Z,5.00
2019-03-24T05:39:30.279Z,4.40
2019-03-24T05:41:57.812Z,4.92
2019-03-24T05:44:25.475Z,4.42
2019-03-24T05:46:53.339Z,4.75
2019-03-24T05:49:20.832Z,4.70
2019-03-24T05:51:48.388Z,4.80
2019-03-24T05:54:16.014Z,5.05
2019-03-24T05:56:43.709Z,4.53
2019-03-24T05:59:11.603Z,6.37
2019-03-24T06:01:39.102Z,4.75
2019-03-24T06:04:06.802Z,3.90
2019-03-24T06:06:34.366Z,4.25
2019-03-24T06:09:02.090Z,5.10
2019-03-24T06:11:30.562Z,5.05
2019-03-24T06:13:58.643Z,5.35
2019-03-24T06:16:26.711Z,5.33
2019-03-24T06:18:54.584Z,4.90
2019-03-24T06:21:22.462Z,4.90
2019-03-24T06:23:50.457Z,4.10
2019-03-24T06:26:18.386Z,5.00
2019-03-24T06:28:46.347Z,4.40
2019-03-24T06:31:13.860Z,5.58
2019-03-24T06:33:41.486Z,4.83
2019-03-24T06:36:08.993Z,4.58
2019-03-24T06:38:36.736Z,5.35
2019-03-24T06:41:04.279Z,5.70
2019-03-24T06:43:32.076Z,4.60
2019-03-24T06:45:59.922Z,3.42
2019-03-24T06:48:28.017Z,4.28
2019-03-24T06:50:55.806Z,4.47
2019-03-24T06:53:23.523Z,5.22
2019-03-24T06:55:51.363Z,4.95
2019-03-24T06:58:18.949Z,5.10
2019-03-24T07:00:47.784Z,5.37
2019-03-24T07:03:15.667Z,7.45
2019-03-24T07:05:43.515Z,5.90
2019-03-24T07:08:11.365Z,5.15
2019-03-24T07:10:39.044Z,4.83
2019-03-24T07:13:06.578Z,5.00
2019-03-24T07:15:34.346Z,4.47
2019-03-24T07:18:08.345Z,7.83
2019-03-24T07:20:31.326Z,10.45
2019-03-24T07:22:58.865Z,4.55
2019-03-24T07:25:26.493Z,4.00
2019-03-24T07:27:54.226Z,4.33
2019-03-24T07:30:26.892Z,3.52
2019-03-24T07:32:54.435Z,4.85
2019-03-24T07:35:21.943Z,7.33
2019-03-24T07:37:49.674Z,3.90
2019-03-24T07:40:17.459Z,9.90
2019-03-24T07:42:45.603Z,4.12
2019-03-24T07:45:13.367Z,4.28
2019-03-24T07:47:40.982Z,4.65
2019-03-24T07:50:09.209Z,4.17
2019-03-24T07:52:37.098Z,4.65
2019-03-24T07:55:05.153Z,3.70
2019-03-24T07:57:32.950Z,4.00
2019-03-24T08:00:01.141Z,5.17
2019-03-24T08:02:29.448Z,4.62
2019-03-24T08:04:57.104Z,4.10
2019-03-24T08:07:24.993Z,3.95
2019-03-24T08:09:52.877Z,4.40
2019-03-24T08:12:20.411Z,4.05
2019-03-24T08:14:47.935Z,3.85
2019-03-24T08:17:15.434Z,4.22
2019-03-24T08:19:42.975Z,4.60
2019-03-24T08:22:10.486Z,3.83
2019-03-24T08:24:38.038Z,3.42
2019-03-24T08:27:06.014Z,4.12
2019-03-24T08:29:34.634Z,3.70
2019-03-24T08:32:02.163Z,3.25
2019-03-24T08:34:29.955Z,3.75
2019-03-24T08:36:57.454Z,4.08
2019-03-24T08:39:25.065Z,3.47
2019-03-24T08:41:52.643Z,4.83
2019-03-24T08:44:20.702Z,5.47
2019-03-24T08:46:48.319Z,3.92
2019-03-24T08:49:16.112Z,4.90
2019-03-24T08:51:44.049Z,3.98
2019-03-24T08:54:11.718Z,5.00
2019-03-24T08:56:39.231Z,4.22
2019-03-24T08:59:07.138Z,3.75
2019-03-24T09:01:34.965Z,4.20
2019-03-24T09:04:02.713Z,4.10
2019-03-24T09:06:30.435Z,3.90
2019-03-24T09:08:57.958Z,4.30
2019-03-24T09:11:31.236Z,4.65
2019-03-24T09:13:55.214Z,4.45
2019-03-24T09:16:22.987Z,6.95
2019-03-24T09:18:52.795Z,3.98
2019-03-24T09:21:20.639Z,2.95
2019-03-24T09:23:48.250Z,4.20
2019-03-24T09:26:15.795Z,3.60
2019-03-24T09:28:43.682Z,4.08
2019-03-24T09:31:11.260Z,4.58
2019-03-24T09:33:39.522Z,3.60
2019-03-24T09:36:07.135Z,4.17
2019-03-24T09:38:34.738Z,4.42
2019-03-24T09:41:02.939Z,6.12
2019-03-24T09:43:30.563Z,3.42
2019-03-24T09:45:58.158Z,3.05
2019-03-24T09:48:26.471Z,4.28
2019-03-24T09:50:53.994Z,2.20
2019-03-24T09:53:22.031Z,3.00
2019-03-24T09:55:49.570Z,3.55
2019-03-24T09:58:17.543Z,3.40
2019-03-24T10:00:45.442Z,4.60
2019-03-24T10:03:13.310Z,3.65
2019-03-24T10:05:41.175Z,3.70
2019-03-24T10:08:08.967Z,3.22
2019-03-24T10:10:36.896Z,3.60
2019-03-24T10:13:04.599Z,3.05
2019-03-24T10:15:32.109Z,3.52
2019-03-24T10:18:00.069Z,4.90
2019-03-24T10:20:27.575Z,3.67
2019-03-24T10:22:55.179Z,3.72
2019-03-24T10:25:22.914Z,4.20
2019-03-24T10:27:50.811Z,4.15
2019-03-24T10:30:18.863Z,5.15
2019-03-24T10:32:46.885Z,3.10
2019-03-24T10:35:15.489Z,6.53
2019-03-24T10:37:43.321Z,5.25
2019-03-24T10:40:11.214Z,3.50
2019-03-24T10:42:39.174Z,2.55
2019-03-24T10:45:07.601Z,3.22
2019-03-24T10:47:35.336Z,3.10
2019-03-24T10:50:03.219Z,3.35
2019-03-24T10:52:30.792Z,3.40
2019-03-24T10:54:58.744Z,4.75
2019-03-24T10:57:27.647Z,4.00
2019-03-24T10:59:55.177Z,4.20
2019-03-24T11:02:23.025Z,3.17
2019-03-24T11:04:50.517Z,4.20
2019-03-24T11:07:18.041Z,2.95
2019-03-24T11:09:45.883Z,4.30
2019-03-24T11:12:13.762Z,2.90
2019-03-24T11:14:41.421Z,5.45
2019-03-24T11:17:09.270Z,3.02
2019-03-24T11:19:40.181Z,3.22
2019-03-24T11:22:07.671Z,2.87
2019-03-24T11:24:35.535Z,3.05
2019-03-24T11:27:03.063Z,3.98
2019-03-24T11:29:30.876Z,3.87
2019-03-24T11:31:58.798Z,4.05
2019-03-24T11:34:26.454Z,4.00
2019-03-24T11:36:54.111Z,3.40
2019-03-24T11:39:21.710Z,2.67
2019-03-24T11:41:49.639Z,2.52
2019-03-24T11:44:17.301Z,3.15
2019-03-24T11:46:45.170Z,2.50
2019-03-24T11:49:14.616Z,3.65
2019-03-24T11:51:42.644Z,3.42
2019-03-24T11:54:10.646Z,2.33
2019-03-24T11:56:38.419Z,2.83
2019-03-24T11:59:05.963Z,2.27
2019-03-24T12:01:38.161Z,2.77
2019-03-24T12:04:05.811Z,2.15
2019-03-24T12:06:33.365Z,3.20
2019-03-24T12:09:01.302Z,2.75
2019-03-24T12:11:29.826Z,2.80
2019-03-24T12:13:57.463Z,3.05
2019-03-24T12:16:25.104Z,2.58
2019-03-24T12:18:52.608Z,3.00
2019-03-24T12:21:20.417Z,3.15
2019-03-24T12:23:47.924Z,2.55
2019-03-24T12:26:15.457Z,2.40
2019-03-24T12:28:43.085Z,3.52
2019-03-24T12:31:10.599Z,4.90
2019-03-24T12:33:38.424Z,2.52
2019-03-24T12:36:06.290Z,1.90
2019-03-24T12:38:34.132Z,1.80
2019-03-24T12:41:02.012Z,1.87
2019-03-24T12:43:29.885Z,2.30
2019-03-24T12:45:57.436Z,2.20
2019-03-24T12:48:25.432Z,2.55
2019-03-24T12:50:53.424Z,3.15
2019-03-24T12:53:21.005Z,3.10
2019-03-24T12:55:48.513Z,2.08
2019-03-24T12:58:16.186Z,2.08
2019-03-24T13:00:43.792Z,1.80
2019-03-24T13:03:11.719Z,3.50
2019-03-24T13:05:39.570Z,2.90
2019-03-24T13:08:17.384Z,2.92
2019-03-24T13:10:46.078Z,2.85
2019-03-24T13:13:14.351Z,2.80
2019-03-24T13:15:41.993Z,2.42
2019-03-24T13:18:09.771Z,2.40
2019-03-24T13:20:38.842Z,2.00
2019-03-24T13:23:06.926Z,2.02
2019-03-24T13:25:36.252Z,1.98
2019-03-24T13:28:03.991Z,2.25
2019-03-24T13:30:31.721Z,2.15
2019-03-24T13:32:59.242Z,2.80
2019-03-24T13:35:27.049Z,2.00
2019-03-24T13:37:54.684Z,1.47
2019-03-24T13:40:22.506Z,1.90
2019-03-24T13:42:50.370Z,2.52
2019-03-24T13:45:17.905Z,1.70
2019-03-24T13:47:45.687Z,1.82
2019-03-24T13:50:13.580Z,2.87
2019-03-24T13:52:41.247Z,2.17
2019-03-24T13:55:09.055Z,2.25
2019-03-24T13:57:36.941Z,2.22
2019-03-24T14:00:05.146Z,1.85
2019-03-24T14:02:32.660Z,2.08
2019-03-24T14:05:00.889Z,1.70
2019-03-24T14:07:28.514Z,1.60
2019-03-24T14:09:56.376Z,2.00
2019-03-24T14:12:23.913Z,1.37
2019-03-24T14:14:51.644Z,1.90
2019-03-24T14:17:19.466Z,1.98
2019-03-24T14:19:47.120Z,1.90
2019-03-24T14:22:15.050Z,2.60
2019-03-24T14:24:42.670Z,2.37
2019-03-24T14:27:10.299Z,2.08
2019-03-24T14:29:38.192Z,1.98
2019-03-24T14:32:06.087Z,2.52
2019-03-24T14:34:33.623Z,2.50
2019-03-24T14:37:01.508Z,1.52
2019-03-24T14:39:29.024Z,1.98
2019-03-24T14:41:57.054Z,2.87
2019-03-24T14:44:24.640Z,2.65
2019-03-24T14:46:52.142Z,2.22
2019-03-24T14:49:19.696Z,1.80
2019-03-24T14:51:47.471Z,2.27
2019-03-24T14:54:15.034Z,2.08
2019-03-24T14:56:42.687Z,2.30
2019-03-24T14:59:10.193Z,2.12
2019-03-24T15:01:37.807Z,2.67
2019-03-24T15:04:05.430Z,2.50
2019-03-24T15:06:32.934Z,1.80
2019-03-24T15:09:00.556Z,2.62
2019-03-24T15:11:28.087Z,2.67
2019-03-24T15:13:56.595Z,1.77
2019-03-24T15:16:24.087Z,3.72
2019-03-24T15:18:51.619Z,2.98
2019-03-24T15:21:19.519Z,2.60
2019-03-24T15:23:47.043Z,2.33
2019-03-24T15:26:14.999Z,2.33
2019-03-24T15:28:43.119Z,2.60
2019-03-24T15:31:10.714Z,1.77
2019-03-24T15:33:38.258Z,2.35
2019-03-24T15:36:06.011Z,1.80
2019-03-24T15:38:33.571Z,2.27
2019-03-24T15:41:01.190Z,2.10
2019-03-24T15:43:29.075Z,1.72
2019-03-24T15:45:56.795Z,3.65
2019-03-24T15:48:24.688Z,2.02
2019-03-24T15:50:52.349Z,1.70
2019-03-24T15:53:20.214Z,1.70
2019-03-24T15:55:47.747Z,2.42
2019-03-24T15:58:15.514Z,1.87
2019-03-24T16:00:45.909Z,2.27
2019-03-24T16:03:13.943Z,2.70
2019-03-24T16:05:42.188Z,2.33
2019-03-24T16:08:09.890Z,3.65
2019-03-24T16:10:37.910Z,2.37
2019-03-24T16:13:05.954Z,3.40
2019-03-24T16:15:33.464Z,1.90
2019-03-24T16:18:01.343Z,2.37
2019-03-24T16:20:28.977Z,2.17
2019-03-24T16:22:56.498Z,2.62
2019-03-24T16:25:24.172Z,2.37
2019-03-24T16:27:51.787Z,2.55
2019-03-24T16:30:19.466Z,2.67
2019-03-24T16:32:47.408Z,2.70
2019-03-24T16:35:14.988Z,2.65
2019-03-24T16:37:42.758Z,2.52
2019-03-24T16:40:10.502Z,2.60
2019-03-24T16:42:38.676Z,3.33
2019-03-24T16:45:06.778Z,2.27
2019-03-24T16:47:34.429Z,2.35
2019-03-24T16:50:02.273Z,2.87
2019-03-24T16:52:30.111Z,2.83
2019-03-24T16:54:58.088Z,2.87
2019-03-24T16:57:26.300Z,2.85
2019-03-24T16:59:54.250Z,3.20
2019-03-24T17:02:21.861Z,3.20
2019-03-24T17:04:49.408Z,2.42
2019-03-24T17:07:17.198Z,3.65
2019-03-24T17:09:45.141Z,2.77
2019-03-24T17:12:12.656Z,3.52
2019-03-24T17:14:40.275Z,3.47
2019-03-24T17:17:07.927Z,2.65
2019-03-24T17:19:35.868Z,2.33
2019-03-24T17:22:03.558Z,2.85
2019-03-24T17:24:31.160Z,2.85
2019-03-24T17:26:59.071Z,2.95
2019-03-24T17:29:26.968Z,3.27
2019-03-24T17:31:54.600Z,3.02
2019-03-24T17:34:22.194Z,3.40
2019-03-24T17:36:49.796Z,3.05
2019-03-24T17:39:17.571Z,3.40
2019-03-24T17:41:45.235Z,4.40
2019-03-24T17:44:13.313Z,3.55
2019-03-24T17:46:40.870Z,2.80
2019-03-24T17:49:08.437Z,3.10
2019-03-24T17:51:36.298Z,3.40
2019-03-24T17:54:03.941Z,3.17
2019-03-24T17:56:32.681Z,3.02
2019-03-24T17:59:00.924Z,3.30
2019-03-24T18:01:28.444Z,4.17
2019-03-24T18:03:55.983Z,2.98
2019-03-24T18:06:23.667Z,2.95
2019-03-24T18:08:51.300Z,3.33
2019-03-24T18:11:19.181Z,3.20
2019-03-24T18:13:46.841Z,3.67
2019-03-24T18:16:14.550Z,2.92
2019-03-24T18:18:43.380Z,2.58
2019-03-24T18:21:10.930Z,3.65
2019-03-24T18:23:39.495Z,2.92
2019-03-24T18:26:07.156Z,2.85
2019-03-24T18:28:34.754Z,3.55
2019-03-24T18:31:03.179Z,3.33
2019-03-24T18:33:30.682Z,2.70
2019-03-24T18:35:58.199Z,3.05
2019-03-24T18:38:25.866Z,2.67
2019-03-24T18:40:53.475Z,3.02
2019-03-24T18:43:21.440Z,2.52
2019-03-24T18:45:49.022Z,3.12
2019-03-24T18:48:16.638Z,2.47
2019-03-24T18:50:44.195Z,4.05
2019-03-24T18:53:12.090Z,3.05
2019-03-24T18:55:39.725Z,3.12
2019-03-24T18:58:07.720Z,2.02
2019-03-24T19:00:35.506Z,2.95
2019-03-24T19:03:03.969Z,2.05
2019-03-24T19:05:31.716Z,2.05
2019-03-24T19:07:59.523Z,2.20
2019-03-24T19:10:27.037Z,1.98
2019-03-24T19:12:54.963Z,1.70
2019-03-24T19:15:22.710Z,2.40
2019-03-24T19:17:50.284Z,2.15
2019-03-24T19:20:18.129Z,2.30
2019-03-24T19:22:45.728Z,1.85
2019-03-24T19:25:13.482Z,2.42
2019-03-24T19:27:41.335Z,1.70
2019-03-24T19:30:10.992Z,1.55
2019-03-24T19:32:38.703Z,1.82
2019-03-24T19:35:07.103Z,2.15
2019-03-24T19:37:35.581Z,2.27
2019-03-24T19:40:04.524Z,2.22
2019-03-24T19:42:32.951Z,2.02
2019-03-24T19:45:00.875Z,2.50
2019-03-24T19:47:28.660Z,2.47
2019-03-24T19:49:56.757Z,2.00
2019-03-24T19:52:24.681Z,2.80
2019-03-24T19:54:52.351Z,2.17
2019-03-24T19:57:20.142Z,2.40
2019-03-24T19:59:47.774Z,2.20
2019-03-24T20:02:15.398Z,2.17
2019-03-24T20:04:43.166Z,1.87
2019-03-24T20:07:10.880Z,2.10
2019-03-24T20:09:38.857Z,2.58
2019-03-24T20:12:06.952Z,6.75
2019-03-24T20:14:35.051Z,3.72
2019-03-24T20:17:02.834Z,2.65
2019-03-24T20:19:30.636Z,4.42
2019-03-24T20:21:58.546Z,4.00
2019-03-24T20:24:26.231Z,4.12
2019-03-24T20:26:54.115Z,4.40
2019-03-24T20:29:22.360Z,4.22
2019-03-24T20:31:50.060Z,4.40
2019-03-24T20:34:17.645Z,6.85
2019-03-24T20:36:45.139Z,4.72
2019-03-24T20:39:12.698Z,5.12
2019-03-24T20:41:40.554Z,4.17
2019-03-24T20:44:08.175Z,5.33
2019-03-24T20:46:35.997Z,5.17
2019-03-24T20:49:03.891Z,5.15
2019-03-24T20:51:31.817Z,4.10
2019-03-24T20:53:59.619Z,5.58
2019-03-24T20:56:27.149Z,3.47
2019-03-24T20:58:54.919Z,2.90
2019-03-24T21:01:23.245Z,2.65
2019-03-24T21:03:50.859Z,3.25
2019-03-24T21:06:18.423Z,3.98
2019-03-24T21:08:45.961Z,4.35
2019-03-24T21:11:13.499Z,4.40
2019-03-24T21:13:41.059Z,3.90
2019-03-24T21:16:08.575Z,2.72
2019-03-24T21:18:36.587Z,2.90
2019-03-24T21:21:04.728Z,4.33
2019-03-24T21:23:36.039Z,3.60
2019-03-24T21:26:04.045Z,2.80
2019-03-24T21:28:31.777Z,2.95
2019-03-24T21:31:03.124Z,3.58
2019-03-24T21:33:30.887Z,3.55
2019-03-24T21:35:58.836Z,2.70
2019-03-24T21:38:26.486Z,2.80
2019-03-24T21:40:54.030Z,2.72
2019-03-24T21:43:21.637Z,3.22
2019-03-24T21:45:49.744Z,3.72
2019-03-24T21:48:17.247Z,3.02
2019-03-24T21:50:44.773Z,3.83
2019-03-24T21:53:12.315Z,2.75
2019-03-24T21:55:40.035Z,3.92
2019-03-24T21:58:07.523Z,2.50
2019-03-24T22:00:36.195Z,2.20
2019-03-24T22:03:05.549Z,2.50
2019-03-24T22:05:33.515Z,3.12
2019-03-24T22:08:01.134Z,2.80
2019-03-24T22:10:29.138Z,3.12
2019-03-24T22:12:56.691Z,3.05
2019-03-24T22:15:24.230Z,2.90
2019-03-24T22:17:51.746Z,3.75
2019-03-24T22:20:19.526Z,2.67
2019-03-24T22:22:47.131Z,3.05
2019-03-24T22:25:14.758Z,2.90
2019-03-24T22:27:42.461Z,3.02
2019-03-24T22:30:11.187Z,3.17
2019-03-24T22:32:39.864Z,2.83
2019-03-24T22:35:07.496Z,3.52
2019-03-24T22:37:35.423Z,2.65
2019-03-24T22:40:03.532Z,3.15
2019-03-24T22:42:31.172Z,3.02
2019-03-24T22:44:58.890Z,3.20
2019-03-24T22:47:26.749Z,3.55
2019-03-24T22:49:54.299Z,3.83
2019-03-24T22:52:21.897Z,3.00
2019-03-24T22:54:50.089Z,3.30
2019-03-24T22:57:18.011Z,2.77
2019-03-24T22:59:45.829Z,3.83
2019-03-24T23:02:13.570Z,3.02
2019-03-24T23:04:41.111Z,2.98
2019-03-24T23:07:09.352Z,2.77
2019-03-24T23:09:37.203Z,3.85
2019-03-24T23:12:05.134Z,3.30
2019-03-24T23:14:32.728Z,3.50
2019-03-24T23:17:00.391Z,4.33
2019-03-24T23:19:27.914Z,3.60
2019-03-24T23:21:55.764Z,3.42
2019-03-24T23:24:23.563Z,3.52
2019-03-24T23:26:51.242Z,3.50
2019-03-24T23:29:19.115Z,3.42
2019-03-24T23:31:46.730Z,3.08
2019-03-24T23:34:14.590Z,3.83
2019-03-24T23:36:42.272Z,3.47
2019-03-24T23:39:09.818Z,3.52
2019-03-24T23:41:37.334Z,3.58
2019-03-24T23:44:05.070Z,3.62
2019-03-24T23:46:32.598Z,3.70
2019-03-24T23:49:01.497Z,3.40
2019-03-24T23:51:29.350Z,3.33
2019-03-24T23:53:56.879Z,3.72
2019-03-24T23:56:24.415Z,3.65
2019-03-24T23:58:52.226Z,4.05
